Latest Weather Observations for Rowley Shoals

IDW60801

Issued at 10:13 pm WST Wednesday 8 July 2020 (issued every 10 minutes, with the page automatically refreshed every 10 minutes)

About weather observations | Map of weather stations | Latest weather observations for WA | Other Formats
Station Details ID: 200713 Name: ROWLEY SHOALS Lat: -17.52 Lon: 118.95 Height: 0.0 m
Data from the previous 72 hours. | See also: Recent months at Rowley Shoals
Date/Time
WST
Temp
°C
App
Temp
°C
Dew
Point
°C
Rel
Hum
%
Delta-T
°C
Wind Press
QNH
hPa
Press
MSL
hPa
Rain since
9am
mm
Dir  Spd
km/h
Gust
km/h
Spd
kts
Gust
kts
08/10:00pm - - - - - SSE 26 30 14 16 1014.3 1014.3 -
08/09:30pm - - - - - SSE 24 28 13 15 1014.3 1014.3 -
08/09:00pm - - - - - SSE 24 28 13 15 1014.2 1014.2 -
08/08:30pm - - - - - SSE 22 28 12 15 1014.1 1014.1 -
08/08:00pm - - - - - SSE 24 26 13 14 1013.9 1013.9 -
08/07:30pm - - - - - SSE 22 26 12 14 1013.7 1013.7 -
08/07:00pm - - - - - SSE 22 26 12 14 1013.5 1013.5 -
08/06:30pm - - - - - SSE 20 26 11 14 1013.2 1013.2 -
08/06:00pm - - - - - SSE 20 26 11 14 1013.0 1013.0 -
08/05:30pm - - - - - SSE 20 24 11 13 1012.7 1012.7 -
08/05:00pm - - - - - SE 19 20 10 11 1012.4 1012.4 -
08/04:30pm - - - - - SSE 19 20 10 11 1012.4 1012.4 -
08/04:00pm - - - - - SSE 20 24 11 13 1012.5 1012.5 -
08/03:30pm - - - - - SE 20 26 11 14 1012.5 1012.5 -
08/03:00pm - - - - - SE 19 22 10 12 1012.6 1012.6 -
08/02:30pm - - - - - SE 22 26 12 14 1012.6 1012.6 -
08/02:00pm - - - - - SE 20 24 11 13 1012.9 1012.9 -
08/01:30pm - - - - - SE 20 24 11 13 1013.3 1013.3 -
08/01:00pm - - - - - SE 20 24 11 13 1013.6 1013.6 -
08/12:30pm - - - - - ESE 20 26 11 14 1014.0 1014.0 -
08/12:00pm - - - - - ESE 22 26 12 14 1014.2 1014.2 -
08/11:30am - - - - - ESE 24 26 13 14 1014.6 1014.6 -
08/11:00am - - - - - ESE 24 28 13 15 1015.0 1015.0 -
08/10:30am - - - - - ESE 24 30 13 16 1015.3 1015.3 -
08/10:00am - - - - - SE 24 30 13 16 1015.6 1015.6 -
08/09:30am - - - - - ESE 26 32 14 17 1015.6 1015.6 -
08/09:00am - - - - - ESE 28 33 15 18 1015.7 1015.7 -
08/08:30am - - - - - ESE 28 32 15 17 1015.6 1015.6 -
08/08:00am - - - - - ESE 28 32 15 17 1015.5 1015.5 -
08/07:30am - - - - - ESE 26 33 14 18 1015.3 1015.3 -
08/07:00am - - - - - SE 26 32 14 17 1015.2 1015.2 -
08/06:30am - - - - - ESE 28 32 15 17 1014.9 1014.9 -
08/06:00am - - - - - ESE 28 32 15 17 1014.7 1014.7 -
08/05:30am - - - - - SE 28 33 15 18 1014.5 1014.5 -
08/05:00am - - - - - SE 32 37 17 20 1014.5 1014.5 -
08/04:30am - - - - - SE 30 35 16 19 1014.4 1014.4 -
08/04:00am - - - - - SE 30 35 16 19 1014.7 1014.7 -
08/03:30am - - - - - SE 30 33 16 18 1014.6 1014.6 -
08/03:00am - - - - - ESE 30 35 16 19 1014.6 1014.6 -
08/02:30am - - - - - ESE 28 33 15 18 1014.9 1014.9 -
08/02:00am - - - - - SE 30 35 16 19 1015.0 1015.0 -
08/01:30am - - - - - ESE 28 33 15 18 1015.1 1015.1 -
08/01:00am - - - - - ESE 28 33 15 18 1015.2 1015.2 -
08/12:30am - - - - - ESE 28 32 15 17 1015.4 1015.4 -
08/12:00am - - - - - ESE 28 33 15 18 1015.3 1015.3 -
 
Date/Time
WST
Temp
°C
App
Temp
°C
Dew
Point
°C
Rel
Hum
%
Delta-T
°C
Wind Press
QNH
hPa
Press
MSL
hPa
Rain since
9am
mm
Dir  Spd
km/h
Gust
km/h
Spd
kts
Gust
kts
07/11:30pm - - - - - ESE 28 33 15 18 1015.6 1015.6 -
07/11:00pm - - - - - ESE 26 32 14 17 1015.9 1015.9 -
07/10:30pm - - - - - ESE 26 32 14 17 1016.1 1016.1 -
07/10:00pm - - - - - SE 30 35 16 19 1015.8 1015.8 -
07/09:30pm - - - - - SE 28 35 15 19 1016.1 1016.1 -
07/09:00pm - - - - - ESE 28 32 15 17 1016.1 1016.1 -
07/08:30pm - - - - - SE 28 32 15 17 1015.8 1015.8 -
07/08:00pm - - - - - ESE 28 33 15 18 1015.6 1015.6 -
07/07:30pm - - - - - ESE 28 33 15 18 1015.2 1015.2 -
07/07:00pm - - - - - ESE 28 33 15 18 1015.0 1015.0 -
07/06:30pm - - - - - ESE 28 35 15 19 1014.8 1014.8 -
07/06:00pm - - - - - SE 30 33 16 18 1014.5 1014.5 -
07/05:30pm - - - - - SE 30 33 16 18 1014.4 1014.4 -
07/05:00pm - - - - - SE 26 32 14 17 1014.4 1014.4 -
07/04:30pm - - - - - SE 26 32 14 17 1014.2 1014.2 -
07/04:00pm - - - - - SE 28 35 15 19 1014.0 1014.0 -
07/03:30pm - - - - - ESE 26 30 14 16 1014.2 1014.2 -
07/03:00pm - - - - - SE 24 28 13 15 1014.4 1014.4 -
07/02:30pm - - - - - ESE 24 30 13 16 1014.2 1014.2 -
07/02:00pm - - - - - ESE 24 32 13 17 1014.3 1014.3 -
07/01:30pm - - - - - ESE 22 28 12 15 1014.5 1014.5 -
07/01:00pm - - - - - ESE 24 28 13 15 1015.0 1015.0 -
07/12:30pm - - - - - E 22 28 12 15 1015.4 1015.4 -
07/12:00pm - - - - - E 24 30 13 16 1015.8 1015.8 -
07/11:30am - - - - - E 26 30 14 16 1016.1 1016.1 -
07/11:00am - - - - - E 28 33 15 18 1016.4 1016.4 -
07/10:30am - - - - - E 30 33 16 18 1016.6 1016.6 -
07/10:00am - - - - - E 30 35 16 19 1016.8 1016.8 -
07/09:30am - - - - - ESE 32 37 17 20 1016.8 1016.8 -
07/09:00am - - - - - E 33 39 18 21 1016.7 1016.7 -
07/08:30am - - - - - E 35 39 19 21 1016.5 1016.5 -
07/08:00am - - - - - E 35 41 19 22 1016.4 1016.4 -
07/07:30am - - - - - ESE 33 43 18 23 1016.3 1016.3 -
07/07:00am - - - - - ESE 35 43 19 23 1016.0 1016.0 -
07/06:30am - - - - - ESE 33 39 18 21 1015.8 1015.8 -
07/06:00am - - - - - ESE 32 35 17 19 1015.5 1015.5 -
07/05:30am - - - - - ESE 30 37 16 20 1015.4 1015.4 -
07/05:00am - - - - - ESE 28 35 15 19 1015.4 1015.4 -
07/04:30am - - - - - ESE 28 33 15 18 1015.4 1015.4 -
07/04:00am - - - - - ESE 26 33 14 18 1015.5 1015.5 -
07/03:30am - - - - - ESE 26 30 14 16 1015.7 1015.7 -
07/03:00am - - - - - ESE 22 26 12 14 1015.9 1015.9 -
07/02:30am - - - - - ESE 22 26 12 14 1016.0 1016.0 -
07/02:00am - - - - - ESE 20 26 11 14 1016.1 1016.1 -
07/01:30am - - - - - ESE 22 26 12 14 1016.2 1016.2 -
07/01:00am - - - - - ESE 22 28 12 15 1016.3 1016.3 -
07/12:30am - - - - - ESE 22 28 12 15 1016.5 1016.5 -
07/12:00am - - - - - ESE 22 26 12 14 1016.6 1016.6 -
 
Date/Time
WST
Temp
°C
App
Temp
°C
Dew
Point
°C
Rel
Hum
%
Delta-T
°C
Wind Press
QNH
hPa
Press
MSL
hPa
Rain since
9am
mm
Dir  Spd
km/h
Gust
km/h
Spd
kts
Gust
kts
06/11:30pm - - - - - E 24 28 13 15 1016.5 1016.5 -
06/11:00pm - - - - - ESE 26 30 14 16 1016.7 1016.7 -
06/10:30pm - - - - - ESE 26 30 14 16 1016.8 1016.8 -
06/10:00pm - - - - - ESE 26 32 14 17 1016.8 1016.8 -
06/09:30pm - - - - - ESE 24 30 13 16 1016.7 1016.7 -
06/09:00pm - - - - - ESE 24 30 13 16 1016.5 1016.5 -
06/08:30pm - - - - - ESE 22 26 12 14 1016.4 1016.4 -
06/08:00pm - - - - - ESE 20 24 11 13 1016.4 1016.4 -
06/07:30pm - - - - - E 22 26 12 14 1016.3 1016.3 -
06/07:00pm - - - - - ESE 22 28 12 15 1016.1 1016.1 -
06/06:30pm - - - - - ESE 22 26 12 14 1015.8 1015.8 -
06/06:00pm - - - - - ESE 24 28 13 15 1015.6 1015.6 -
06/05:30pm - - - - - ESE 22 26 12 14 1015.2 1015.2 -
06/05:00pm - - - - - ESE 22 26 12 14 1015.0 1015.0 -
06/04:30pm - - - - - ESE 22 26 12 14 1014.8 1014.8 -
06/04:00pm - - - - - ESE 22 26 12 14 1014.7 1014.7 -
06/03:30pm - - - - - ESE 20 26 11 14 1014.6 1014.6 -
06/03:00pm - - - - - ESE 20 26 11 14 1014.6 1014.6 -
06/02:30pm - - - - - E 20 24 11 13 1014.5 1014.5 -
06/02:00pm - - - - - E 19 24 10 13 1014.6 1014.6 -
06/01:30pm - - - - - ESE 19 20 10 11 1014.8 1014.8 -
06/01:00pm - - - - - E 19 24 10 13 1015.0 1015.0 -
06/12:30pm - - - - - E 22 26 12 14 1015.1 1015.1 -
06/12:00pm - - - - - E 24 30 13 16 1015.5 1015.5 -
06/11:30am - - - - - E 26 30 14 16 1015.9 1015.9 -
06/11:00am - - - - - E 28 30 15 16 1016.2 1016.2 -
06/10:30am - - - - - E 30 35 16 19 1016.4 1016.4 -
06/10:00am - - - - - E 32 35 17 19 1016.5 1016.5 -
06/09:30am - - - - - E 32 37 17 20 1016.6 1016.6 -
06/09:00am - - - - - E 33 41 18 22 1016.4 1016.4 -
06/08:30am - - - - - E 35 41 19 22 1016.4 1016.4 -
06/08:00am - - - - - E 35 43 19 23 1016.0 1016.0 -
06/07:30am - - - - - E 35 39 19 21 1015.9 1015.9 -
06/07:00am - - - - - E 35 43 19 23 1015.6 1015.6 -
06/06:30am - - - - - E 35 41 19 22 1015.6 1015.6 -
06/06:00am - - - - - E 35 43 19 23 1015.2 1015.2 -
06/05:30am - - - - - E 35 41 19 22 1014.8 1014.8 -
06/05:00am - - - - - E 37 43 20 23 1014.6 1014.6 -
06/04:30am - - - - - E 35 43 19 23 1014.6 1014.6 -
06/04:00am - - - - - E 33 43 18 23 1014.6 1014.6 -
06/03:30am - - - - - E 32 37 17 20 1014.6 1014.6 -
06/03:00am - - - - - E 30 33 16 18 1014.6 1014.6 -
06/02:30am - - - - - ESE 28 32 15 17 1014.8 1014.8 -
06/02:00am - - - - - E 28 32 15 17 1014.8 1014.8 -
06/01:30am - - - - - ESE 30 33 16 18 1015.1 1015.1 -
06/01:00am - - - - - E 30 32 16 17 1015.3 1015.3 -
06/12:30am - - - - - ESE 26 32 14 17 1015.5 1015.5 -
06/12:00am - - - - - E 28 32 15 17 1015.7 1015.7 -
 
Date/Time
WST
Temp
°C
App
Temp
°C
Dew
Point
°C
Rel
Hum
%
Delta-T
°C
Wind Press
QNH
hPa
Press
MSL
hPa
Rain since
9am
mm
Dir  Spd
km/h
Gust
km/h
Spd
kts
Gust
kts
05/11:30pm - - - - - E 26 30 14 16 1015.7 1015.7 -
05/11:00pm - - - - - E 26 33 14 18 1015.7 1015.7 -
05/10:30pm - - - - - E 30 33 16 18 1015.7 1015.7 -

Other formats

Comma delimited format used in spreadsheet applications
http://www.bom.gov.au/fwo/IDW60801/IDW60801.94207.axf

JavaScript Object Notation format (JSON) in row-major order
http://www.bom.gov.au/fwo/IDW60801/IDW60801.94207.json

Data quality

Most of these data are generated automatically and are frequently updated. Quality checks on data are not normally performed. It is possible for incorrect values to appear. Refer to information at About Latest Weather Observations and please check the disclaimer before using these data.